Time;durP1;ratioP1;P1;durP2;ratioP2;P2;SDS_P1;SDS_P2;PMS_P1;PMS_P2;Temp;Humidity;BMP_temperature;BMP_pressure;BME280_temperature;BME280_humidity;BME280_pressure;Samples;Min_cycle;Max_cycle;Signal;HPM_P1;HPM_P2
2022/07/21 00:00:32;;;;;;;25.23;23.03;;;;;;;18.30;nan;99408.81;2057296;28;20452;-73
2022/07/21 00:01:35;;;;;;;25.07;22.50;;;;;;;18.27;nan;99406.78;2065940;28;20185;-73
2022/07/21 00:02:37;;;;;;;24.70;22.30;;;;;;;18.25;nan;99406.34;2074082;28;20435;-73
2022/07/21 00:03:38;;;;;;;24.73;22.40;;;;;;;18.25;nan;99410.97;2074085;28;20423;-73
2022/07/21 00:04:39;;;;;;;30.83;23.20;;;;;;;18.22;nan;99406.22;2074144;28;20439;-73
2022/07/21 00:05:40;;;;;;;25.50;22.60;;;;;;;18.21;nan;99412.75;2074251;28;20219;-73
2022/07/21 00:06:45;;;;;;;25.20;22.80;;;;;;;18.19;nan;99415.00;2073720;28;20455;-73
2022/07/21 00:07:47;;;;;;;31.63;22.93;;;;;;;18.17;nan;99419.97;2074278;28;20683;-74
2022/07/21 00:08:50;;;;;;;28.73;23.13;;;;;;;18.16;nan;99423.78;2073980;28;20434;-73
2022/07/21 00:09:51;;;;;;;25.63;22.93;;;;;;;18.13;nan;99419.81;2073668;28;20924;-73
2022/07/21 00:10:53;;;;;;;26.30;23.30;;;;;;;18.11;nan;99416.69;2065402;28;20459;-73
2022/07/21 00:11:53;;;;;;;25.17;22.67;;;;;;;18.08;nan;99410.06;2065402;28;20993;-74
2022/07/21 00:12:55;;;;;;;24.77;22.37;;;;;;;18.07;nan;99411.19;2074009;28;20796;-74
2022/07/21 00:13:59;;;;;;;25.13;22.63;;;;;;;18.07;nan;99405.78;2073977;28;20275;-73
2022/07/21 00:15:03;;;;;;;25.73;22.73;;;;;;;18.05;nan;99404.53;2073992;28;20477;-74
2022/07/21 00:16:08;;;;;;;24.50;22.13;;;;;;;18.04;nan;99411.84;2074043;28;20463;-75
2022/07/21 00:17:11;;;;;;;25.30;22.63;;;;;;;18.01;nan;99404.41;2073932;28;20773;-74
2022/07/21 00:18:13;;;;;;;25.33;22.73;;;;;;;18.00;nan;99408.25;2065549;28;20482;-74
2022/07/21 00:19:14;;;;;;;25.43;22.77;;;;;;;17.98;nan;99404.28;2065323;28;20476;-74
2022/07/21 00:20:17;;;;;;;25.20;22.73;;;;;;;17.96;nan;99404.63;2073994;28;20438;-74
2022/07/21 00:21:18;;;;;;;27.77;22.57;;;;;;;17.96;nan;99406.53;2073442;28;20224;-74
2022/07/21 00:22:21;;;;;;;29.73;22.43;;;;;;;17.93;nan;99404.53;2065564;28;20942;-74
2022/07/21 00:23:24;;;;;;;25.87;22.97;;;;;;;17.91;nan;99406.78;2065515;28;20204;-73
2022/07/21 00:24:28;;;;;;;25.30;22.70;;;;;;;17.89;nan;99404.38;2065220;28;20447;-73
2022/07/21 00:25:29;;;;;;;25.40;22.90;;;;;;;17.87;nan;99412.03;2057545;28;20459;-74
2022/07/21 00:26:30;;;;;;;25.77;23.00;;;;;;;17.87;nan;99414.75;2065296;28;20962;-76
2022/07/21 00:27:31;;;;;;;25.50;22.93;;;;;;;17.86;nan;99412.38;2065613;28;20695;-76
2022/07/21 00:28:34;;;;;;;25.60;22.80;;;;;;;17.82;nan;99423.06;2065267;28;20859;-76
2022/07/21 00:29:35;;;;;;;25.97;23.30;;;;;;;17.82;nan;99422.28;2074057;28;20192;-77
2022/07/21 00:30:37;;;;;;;25.47;22.87;;;;;;;17.77;nan;99415.97;2073935;28;20910;-77
2022/07/21 00:31:38;;;;;;;25.60;23.17;;;;;;;17.77;nan;99415.97;2065584;28;20710;-78
2022/07/21 00:32:40;;;;;;;25.23;22.77;;;;;;;17.76;nan;99414.41;2065336;28;20471;-77
2022/07/21 00:33:41;;;;;;;24.70;22.40;;;;;;;17.75;nan;99417.44;2057617;28;20671;-79
2022/07/21 00:34:43;;;;;;;24.10;21.93;;;;;;;17.72;nan;99418.09;2057095;28;20845;-78
2022/07/21 00:35:45;;;;;;;25.77;22.20;;;;;;;17.71;nan;99411.13;2065702;28;20228;-78
2022/07/21 00:36:47;;;;;;;24.60;22.23;;;;;;;17.68;nan;99409.84;2065288;28;20485;-77
2022/07/21 00:37:51;;;;;;;24.63;22.40;;;;;;;17.67;nan;99410.19;2057267;28;20452;-77
2022/07/21 00:38:53;;;;;;;28.37;22.63;;;;;;;17.63;nan;99415.44;2065487;28;20428;-76
2022/07/21 00:39:55;;;;;;;25.13;22.63;;;;;;;17.62;nan;99407.69;2074121;28;20433;-76
2022/07/21 00:40:57;;;;;;;26.63;22.60;;;;;;;17.59;nan;99411.06;2064823;28;20476;-76
2022/07/21 00:41:58;;;;;;;25.10;22.50;;;;;;;17.58;nan;99412.19;2065181;28;20473;-77
2022/07/21 00:42:59;;;;;;;24.20;21.93;;;;;;;17.57;nan;99410.63;2065185;28;20444;-79
2022/07/21 00:44:00;;;;;;;29.53;22.73;;;;;;;17.55;nan;99410.97;2065247;28;20193;-79
2022/07/21 00:45:05;;;;;;;26.17;22.60;;;;;;;17.52;nan;99415.09;2065441;28;20428;-79
2022/07/21 00:46:06;;;;;;;24.37;21.87;;;;;;;17.53;nan;99411.25;2074230;28;20183;-80
2022/07/21 00:47:08;;;;;;;26.47;22.27;;;;;;;17.50;nan;99409.25;2074120;28;20470;-80
2022/07/21 00:48:09;;;;;;;24.97;22.37;;;;;;;17.50;nan;99417.34;2073994;28;20526;-79
2022/07/21 00:49:10;;;;;;;25.93;23.50;;;;;;;17.47;nan;99419.94;2065179;28;20459;-79
2022/07/21 00:50:15;;;;;;;26.33;23.70;;;;;;;17.45;nan;99420.22;2057124;28;20213;-79
2022/07/21 00:51:17;;;;;;;25.87;23.10;;;;;;;17.44;nan;99418.66;2065334;28;20451;-79
2022/07/21 00:52:19;;;;;;;25.60;23.07;;;;;;;17.42;nan;99417.41;2065067;28;20459;-79
2022/07/21 00:53:22;;;;;;;25.53;23.13;;;;;;;17.38;nan;99414.63;2065294;28;20475;-79
2022/07/21 00:54:22;;;;;;;26.90;24.20;;;;;;;17.40;nan;99419.66;2073835;28;20442;-79
2022/07/21 00:55:24;;;;;;;25.57;22.97;;;;;;;17.38;nan;99421.91;2065381;28;20440;-79
2022/07/21 00:56:24;;;;;;;28.17;23.40;;;;;;;17.37;nan;99423.00;2065449;28;20281;-79
2022/07/21 00:57:28;;;;;;;24.87;22.43;;;;;;;17.36;nan;99432.22;2074131;28;20439;-79
2022/07/21 00:58:31;;;;;;;26.70;22.93;;;;;;;17.33;nan;99433.69;2074195;28;20279;-79
2022/07/21 00:59:33;;;;;;;25.30;22.83;;;;;;;17.32;nan;99429.41;2074540;28;20428;-78
2022/07/21 01:00:34;;;;;;;26.27;23.43;;;;;;;17.31;nan;99430.53;2065587;28;20510;-78
2022/07/21 01:01:35;;;;;;;25.30;22.83;;;;;;;17.29;nan;99432.78;2065090;28;20432;-77
2022/07/21 01:02:36;;;;;;;24.67;22.27;;;;;;;17.29;nan;99426.56;2065192;28;20256;-77
2022/07/21 01:03:41;;;;;;;26.87;23.00;;;;;;;17.28;nan;99433.88;2073825;28;20427;-75
2022/07/21 01:04:43;;;;;;;25.60;22.93;;;;;;;17.25;nan;99437.25;2073814;28;20663;-76
2022/07/21 01:05:45;;;;;;;25.47;22.77;;;;;;;17.23;nan;99429.50;2073902;28;20423;-75
2022/07/21 01:06:48;;;;;;;25.87;23.47;;;;;;;17.24;nan;99435.69;2073576;28;20816;-76
2022/07/21 01:07:52;;;;;;;26.43;23.60;;;;;;;17.20;nan;99438.25;2073817;28;20514;-77
2022/07/21 01:08:54;;;;;;;25.93;23.43;;;;;;;17.19;nan;99425.06;2065044;28;20447;-78
2022/07/21 01:09:56;;;;;;;24.33;22.13;;;;;;;17.16;nan;99429.22;2066059;28;20436;-78
2022/07/21 01:11:00;;;;;;;26.90;23.20;;;;;;;17.12;nan;99428.34;2065079;28;20453;-78
2022/07/21 01:12:02;;;;;;;25.00;22.23;;;;;;;17.13;nan;99439.91;2065348;28;20478;-78
2022/07/21 01:13:06;;;;;;;25.47;23.07;;;;;;;17.10;nan;99435.16;2065628;28;20436;-78
2022/07/21 01:14:07;;;;;;;25.50;23.23;;;;;;;17.07;nan;99427.72;2073534;28;20587;-78
2022/07/21 01:15:10;;;;;;;26.37;23.77;;;;;;;17.04;nan;99437.28;2065509;28;20511;-78
2022/07/21 01:16:11;;;;;;;25.83;23.33;;;;;;;17.02;nan;99436.78;2057311;28;20445;-76
2022/07/21 01:17:12;;;;;;;25.20;22.87;;;;;;;17.03;nan;99440.28;2064643;28;20448;-77
2022/07/21 01:18:14;;;;;;;25.27;22.97;;;;;;;17.01;nan;99435.22;2065124;28;20196;-77
2022/07/21 01:19:18;;;;;;;26.27;23.53;;;;;;;17.00;nan;99438.25;2073761;28;20430;-77
2022/07/21 01:20:21;;;;;;;25.27;22.97;;;;;;;16.98;nan;99435.09;2073956;28;20442;-77
2022/07/21 01:21:29;;;;;;;25.87;23.40;;;;;;;16.98;nan;99435.09;2073280;28;20514;-76
2022/07/21 01:22:31;;;;;;;26.37;23.67;;;;;;;16.97;nan;99441.63;2066473;28;20592;-74
2022/07/21 01:23:32;;;;;;;26.67;24.27;;;;;;;16.95;nan;99437.34;2066866;28;20844;-74
2022/07/21 01:24:33;;;;;;;25.63;23.13;;;;;;;16.92;nan;99440.69;2075267;28;20462;-74
2022/07/21 01:25:35;;;;;;;26.33;23.50;;;;;;;16.92;nan;99435.28;2075406;28;20419;-74
2022/07/21 01:26:43;;;;;;;25.73;23.20;;;;;;;16.90;nan;99432.13;2075186;28;20219;-74
2022/07/21 01:27:45;;;;;;;26.37;23.53;;;;;;;16.90;nan;99440.22;2075113;28;20419;-75
2022/07/21 01:28:45;;;;;;;27.10;24.27;;;;;;;16.90;nan;99445.63;2075259;28;20501;-75
2022/07/21 01:29:47;;;;;;;27.67;24.47;;;;;;;16.89;nan;99438.66;2075287;28;20439;-76
2022/07/21 01:30:48;;;;;;;26.40;23.73;;;;;;;16.88;nan;99439.78;2075139;28;20280;-76
2022/07/21 01:31:51;;;;;;;27.33;24.47;;;;;;;16.88;nan;99450.56;2075294;28;20474;-76
2022/07/21 01:32:51;;;;;;;27.63;24.90;;;;;;;16.86;nan;99446.59;2075356;28;20271;-76
2022/07/21 01:33:54;;;;;;;27.50;24.70;;;;;;;16.87;nan;99442.78;2075208;28;20435;-75
2022/07/21 01:34:55;;;;;;;29.63;24.73;;;;;;;16.85;nan;99445.81;2066289;28;20243;-75
2022/07/21 01:35:56;;;;;;;25.83;23.37;;;;;;;16.83;nan;99445.34;2066022;28;20463;-75
2022/07/21 01:36:58;;;;;;;26.30;23.73;;;;;;;16.82;nan;99442.97;2066409;28;20224;-76
2022/07/21 01:38:00;;;;;;;28.60;24.63;;;;;;;16.80;nan;99442.53;2066333;28;20953;-76
2022/07/21 01:41:41;;;;;;;26.90;24.27;;;;;;;16.74;nan;99450.00;2075181;28;20455;-77
2022/07/21 01:42:43;;;;;;;27.60;24.77;;;;;;;16.72;nan;99446.06;2075169;28;20976;-77
2022/07/21 01:43:44;;;;;;;26.47;23.90;;;;;;;16.70;nan;99441.00;2075058;28;20463;-78
2022/07/21 01:44:45;;;;;;;26.97;23.60;;;;;;;16.67;nan;99450.47;2075083;28;20461;-77
2022/07/21 01:45:47;;;;;;;28.97;24.97;;;;;;;16.67;nan;99455.88;2075075;28;20215;-77
2022/07/21 01:46:53;;;;;;;27.63;24.17;;;;;;;16.66;nan;99453.50;2075046;28;20902;-78
2022/07/21 01:47:55;;;;;;;25.77;23.37;;;;;;;16.64;nan;99450.34;2075414;28;20411;-78
2022/07/21 01:48:58;;;;;;;25.73;23.27;;;;;;;16.62;nan;99448.00;2075360;28;20784;-77
2022/07/21 01:49:59;;;;;;;28.80;23.77;;;;;;;16.61;nan;99446.41;2075087;28;20431;-78
2022/07/21 01:51:01;;;;;;;25.70;23.10;;;;;;;16.59;nan;99448.66;2066192;28;21008;-77
2022/07/21 01:52:03;;;;;;;26.40;23.70;;;;;;;16.58;nan;99438.19;2058535;28;20249;-78
2022/07/21 01:53:05;;;;;;;26.00;23.37;;;;;;;16.58;nan;99438.19;2066436;28;20432;-78
2022/07/21 01:54:08;;;;;;;26.83;23.97;;;;;;;16.57;nan;99444.69;2074972;28;20438;-77
2022/07/21 01:55:10;;;;;;;27.17;24.23;;;;;;;16.57;nan;99439.28;2075028;28;20439;-78
2022/07/21 01:56:13;;;;;;;26.73;23.43;;;;;;;16.56;nan;99443.13;2074960;28;20431;-77
2022/07/21 01:57:15;;;;;;;26.37;23.60;;;;;;;16.56;nan;99437.72;2066252;28;20938;-78
2022/07/21 01:58:17;;;;;;;25.97;23.33;;;;;;;16.54;nan;99438.06;2066530;28;20284;-77
2022/07/21 01:59:18;;;;;;;34.13;24.53;;;;;;;16.54;nan;99445.34;2066216;28;20536;-77
2022/07/21 02:00:21;;;;;;;27.00;24.30;;;;;;;16.54;nan;99442.66;2065845;28;20436;-77
2022/07/21 02:01:26;;;;;;;27.57;24.73;;;;;;;16.50;nan;99434.41;2058363;28;20607;-76
2022/07/21 02:02:30;;;;;;;26.47;23.93;;;;;;;16.50;nan;99439.81;2066937;28;20440;-77
2022/07/21 02:03:31;;;;;;;27.10;23.23;;;;;;;16.48;nan;99435.88;2074910;28;20481;-77
2022/07/21 02:04:34;;;;;;;26.17;23.63;;;;;;;16.46;nan;99438.88;2075009;28;20423;-76
2022/07/21 02:05:34;;;;;;;26.37;23.87;;;;;;;16.45;nan;99442.69;2066405;28;20303;-77
2022/07/21 02:06:40;;;;;;;27.00;24.37;;;;;;;16.44;nan;99440.34;2065996;28;21082;-77
2022/07/21 02:07:43;;;;;;;31.23;24.17;;;;;;;16.43;nan;99438.75;2066189;28;20196;-78
2022/07/21 02:08:47;;;;;;;26.30;23.70;;;;;;;16.40;nan;99443.66;2066609;28;20459;-77
2022/07/21 02:09:49;;;;;;;26.90;24.47;;;;;;;16.37;nan;99435.47;2074971;28;20518;-77
2022/07/21 02:10:50;;;;;;;27.00;24.13;;;;;;;16.37;nan;99447.00;2074963;28;20427;-78
2022/07/21 02:11:51;;;;;;;27.27;24.30;;;;;;;16.35;nan;99449.25;2066335;28;20460;-78
2022/07/21 02:12:52;;;;;;;25.93;23.30;;;;;;;16.35;nan;99451.16;2066059;28;20440;-78
2022/07/21 02:13:55;;;;;;;26.70;24.10;;;;;;;16.34;nan;99455.75;2066166;28;20674;-77
2022/07/21 02:14:57;;;;;;;26.70;24.37;;;;;;;16.32;nan;99455.25;2074728;28;20448;-77
2022/07/21 02:16:00;;;;;;;27.07;24.57;;;;;;;16.32;nan;99449.88;2074721;28;20486;-78
2022/07/21 02:17:03;;;;;;;27.30;24.50;;;;;;;16.31;nan;99442.91;2066234;28;20795;-78
2022/07/21 02:18:04;;;;;;;29.97;26.40;;;;;;;16.35;nan;99448.47;2058073;28;20473;-78
2022/07/21 02:19:08;;;;;;;32.90;25.80;;;;;;;16.37;nan;99449.72;2066086;28;20437;-76
2022/07/21 02:20:10;;;;;;;26.77;23.97;;;;;;;16.38;nan;99445.91;2074755;28;20945;-77
2022/07/21 02:21:12;;;;;;;27.70;24.90;;;;;;;16.39;nan;99444.78;2074212;28;20850;-77
2022/07/21 02:22:15;;;;;;;26.67;24.07;;;;;;;16.38;nan;99437.03;2074774;28;20459;-77
2022/07/21 02:23:19;;;;;;;28.53;24.30;;;;;;;16.38;nan;99437.81;2074976;28;20431;-77
2022/07/21 02:24:21;;;;;;;27.13;24.53;;;;;;;16.38;nan;99439.72;2065551;28;20436;-77
2022/07/21 02:25:22;;;;;;;27.50;24.67;;;;;;;16.37;nan;99443.53;2065650;28;20448;-76
2022/07/21 02:26:24;;;;;;;27.20;24.33;;;;;;;16.38;nan;99442.41;2065999;28;20460;-77
2022/07/21 02:27:24;;;;;;;26.83;24.23;;;;;;;16.36;nan;99441.97;2066006;28;20196;-77
2022/07/21 02:28:27;;;;;;;31.47;24.97;;;;;;;16.35;nan;99438.47;2066141;28;20930;-77
2022/07/21 02:29:28;;;;;;;26.67;23.83;;;;;;;16.35;nan;99437.69;2074711;28;20279;-77
2022/07/21 02:30:30;;;;;;;25.93;23.53;;;;;;;16.31;nan;99437.53;2074823;28;20482;-77
2022/07/21 02:31:32;;;;;;;27.03;24.33;;;;;;;16.32;nan;99449.88;2066192;28;21010;-77
2022/07/21 02:32:34;;;;;;;28.37;23.97;;;;;;;16.32;nan;99452.56;2065198;28;20464;-77
2022/07/21 02:33:34;;;;;;;27.33;24.30;;;;;;;16.30;nan;99435.16;2066268;28;20464;-76
2022/07/21 02:34:39;;;;;;;26.57;24.00;;;;;;;16.30;nan;99438.66;2065945;28;20444;-77
2022/07/21 02:35:41;;;;;;;27.93;24.43;;;;;;;16.29;nan;99439.78;2066500;28;20193;-77
2022/07/21 02:36:44;;;;;;;28.17;25.10;;;;;;;16.30;nan;99437.88;2065188;28;20460;-77
2022/07/21 02:37:45;;;;;;;26.60;23.73;;;;;;;16.30;nan;99441.34;2066292;28;20435;-77
2022/07/21 02:38:49;;;;;;;26.77;23.87;;;;;;;16.27;nan;99433.94;2074692;28;20930;-77
2022/07/21 02:39:50;;;;;;;27.33;23.80;;;;;;;16.28;nan;99438.19;2074836;28;20439;-76
2022/07/21 02:40:51;;;;;;;26.80;24.30;;;;;;;16.26;nan;99432.34;2065862;28;20555;-76
2022/07/21 02:41:53;;;;;;;26.40;23.83;;;;;;;16.24;nan;99434.56;2066002;28;20693;-77
2022/07/21 02:42:56;;;;;;;25.30;23.00;;;;;;;16.23;nan;99430.28;2074691;28;20462;-77
2022/07/21 02:43:57;;;;;;;26.43;23.80;;;;;;;16.22;nan;99434.09;2074696;28;20420;-77
2022/07/21 02:44:58;;;;;;;25.97;23.47;;;;;;;16.18;nan;99427.78;2074578;28;20431;-77
2022/07/21 02:45:59;;;;;;;28.13;24.03;;;;;;;16.19;nan;99432.06;2074575;28;20200;-77
2022/07/21 02:47:00;;;;;;;26.20;23.63;;;;;;;16.16;nan;99430.03;2066000;28;20500;-77
2022/07/21 02:48:03;;;;;;;26.00;23.43;;;;;;;16.14;nan;99432.22;2057781;28;20240;-77
2022/07/21 02:49:05;;;;;;;25.27;22.83;;;;;;;16.11;nan;99430.97;2066241;28;20439;-77
2022/07/21 02:50:08;;;;;;;26.23;23.53;;;;;;;16.11;nan;99433.69;2074553;28;20526;-76
2022/07/21 02:51:11;;;;;;;26.57;24.03;;;;;;;16.09;nan;99435.91;2074171;28;20526;-77
2022/07/21 02:52:12;;;;;;;25.87;23.30;;;;;;;16.10;nan;99434.00;2065592;28;20472;-77
2022/07/21 02:53:17;;;;;;;27.53;24.87;;;;;;;16.09;nan;99430.53;2065689;28;20495;-77
2022/07/21 02:54:19;;;;;;;32.00;24.67;;;;;;;16.09;nan;99432.44;2066401;28;20550;-77
2022/07/21 02:55:21;;;;;;;26.87;24.23;;;;;;;16.08;nan;99433.53;2074593;28;20427;-77
2022/07/21 02:56:24;;;;;;;25.23;22.50;;;;;;;16.06;nan;99428.47;2074483;28;20462;-77
2022/07/21 02:57:26;;;;;;;26.30;23.53;;;;;;;16.06;nan;99431.16;2074421;28;20431;-77
2022/07/21 02:58:28;;;;;;;27.53;24.63;;;;;;;16.05;nan;99423.41;2074493;28;20427;-77
2022/07/21 02:59:30;;;;;;;26.77;23.97;;;;;;;16.07;nan;99426.56;2074441;28;20431;-77
2022/07/21 03:00:31;;;;;;;26.70;24.13;;;;;;;16.08;nan;99423.56;2074589;28;20442;-77
2022/07/21 03:01:32;;;;;;;27.97;24.83;;;;;;;16.09;nan;99421.66;2074688;28;20423;-77
2022/07/21 03:02:33;;;;;;;28.00;24.53;;;;;;;16.11;nan;99424.81;2065669;28;20626;-77
2022/07/21 03:03:36;;;;;;;27.77;24.63;;;;;;;16.13;nan;99429.88;2065720;28;20432;-77
2022/07/21 03:04:37;;;;;;;27.63;24.10;;;;;;;16.13;nan;99422.56;2074557;28;20561;-77
2022/07/21 03:05:39;;;;;;;28.30;24.50;;;;;;;16.15;nan;99417.66;2074537;28;20486;-77
2022/07/21 03:06:42;;;;;;;27.90;24.93;;;;;;;16.18;nan;99422.41;2074217;28;20227;-77
2022/07/21 03:07:42;;;;;;;28.60;24.90;;;;;;;16.21;nan;99421.75;2074500;28;20428;-77
2022/07/21 03:08:44;;;;;;;30.13;25.20;;;;;;;16.26;nan;99426.97;2074431;28;20918;-77
2022/07/21 03:09:46;;;;;;;28.67;25.03;;;;;;;16.32;nan;99433.72;2065642;28;20226;-77
2022/07/21 03:10:49;;;;;;;29.60;24.77;;;;;;;16.36;nan;99423.09;2066059;28;20424;-77
2022/07/21 03:11:51;;;;;;;27.90;24.90;;;;;;;16.40;nan;99427.50;2065760;28;20455;-77
2022/07/21 03:12:53;;;;;;;28.83;25.43;;;;;;;16.45;nan;99431.13;2065506;28;20550;-77
2022/07/21 03:13:54;;;;;;;27.90;24.47;;;;;;;16.47;nan;99424.31;2065926;28;20472;-77
2022/07/21 03:14:55;;;;;;;28.40;25.40;;;;;;;16.47;nan;99424.31;2065600;28;20558;-77
2022/07/21 03:15:56;;;;;;;28.87;24.27;;;;;;;16.50;nan;99422.84;2065452;28;20491;-77
2022/07/21 03:16:58;;;;;;;29.73;23.60;;;;;;;16.52;nan;99426.03;2065938;28;20197;-77
2022/07/21 03:18:00;;;;;;;28.33;24.40;;;;;;;16.52;nan;99432.22;2074401;28;20432;-77
2022/07/21 03:19:02;;;;;;;26.40;23.80;;;;;;;16.53;nan;99433.78;2065773;28;20443;-77
2022/07/21 03:20:06;;;;;;;30.37;24.10;;;;;;;16.55;nan;99420.78;2057460;28;20452;-77
2022/07/21 03:21:06;;;;;;;30.47;24.87;;;;;;;16.58;nan;99435.50;2065274;28;20436;-77
2022/07/21 03:22:08;;;;;;;27.23;24.30;;;;;;;16.60;nan;99428.69;2074606;28;20415;-77
2022/07/21 03:23:09;;;;;;;29.50;24.47;;;;;;;16.62;nan;99431.81;2074514;28;20279;-77
2022/07/21 03:24:11;;;;;;;27.80;24.80;;;;;;;16.63;nan;99424.53;2065241;28;20443;-77
2022/07/21 03:25:13;;;;;;;27.20;24.40;;;;;;;16.64;nan;99423.41;2065642;28;20535;-77
2022/07/21 03:26:17;;;;;;;36.57;25.57;;;;;;;16.66;nan;99426.56;2065494;28;20804;-77
2022/07/21 03:27:18;;;;;;;30.97;24.13;;;;;;;16.65;nan;99419.59;2066034;28;20464;-77
2022/07/21 03:28:20;;;;;;;30.77;24.20;;;;;;;16.65;nan;99416.91;2074367;28;20905;-77
2022/07/21 03:29:21;;;;;;;29.27;25.93;;;;;;;16.65;nan;99425.00;2074380;28;20271;-77
2022/07/21 03:30:26;;;;;;;31.10;25.80;;;;;;;16.64;nan;99421.50;2074256;28;20439;-77
2022/07/21 03:31:27;;;;;;;34.00;24.60;;;;;;;16.64;nan;99423.41;2074374;28;20188;-77
2022/07/21 03:32:29;;;;;;;26.97;24.40;;;;;;;16.63;nan;99424.53;2074216;28;20462;-77
2022/07/21 03:33:32;;;;;;;29.03;24.07;;;;;;;16.65;nan;99422.28;2074430;28;20746;-77
2022/07/21 03:34:33;;;;;;;30.27;25.00;;;;;;;16.65;nan;99427.69;2074181;28;20428;-77
2022/07/21 03:35:35;;;;;;;28.03;25.23;;;;;;;16.67;nan;99422.75;2065420;28;20475;-77
2022/07/21 03:36:37;;;;;;;27.60;24.97;;;;;;;16.66;nan;99421.97;2057072;28;20225;-77
2022/07/21 03:37:42;;;;;;;27.00;24.23;;;;;;;16.68;nan;99418.97;2065630;28;20431;-77
2022/07/21 03:38:45;;;;;;;28.03;25.13;;;;;;;16.72;nan;99422.59;2074319;28;20408;-78
2022/07/21 03:39:46;;;;;;;27.97;25.17;;;;;;;16.75;nan;99424.63;2074256;28;20432;-77
2022/07/21 03:40:54;;;;;;;28.10;25.23;;;;;;;16.75;nan;99421.16;2065405;28;20452;-77
2022/07/21 03:41:54;;;;;;;29.63;25.00;;;;;;;16.78;nan;99424.00;2065706;28;20737;-77
2022/07/21 03:42:57;;;;;;;27.83;25.10;;;;;;;16.77;nan;99422.41;2065441;28;20436;-77
2022/07/21 03:43:58;;;;;;;26.43;23.87;;;;;;;16.81;nan;99420.63;2074191;28;20184;-78
2022/07/21 03:45:00;;;;;;;27.97;24.77;;;;;;;16.85;nan;99418.88;2073773;28;20427;-77
2022/07/21 03:46:01;;;;;;;29.33;24.93;;;;;;;16.87;nan;99416.63;2065511;28;20767;-77
2022/07/21 03:47:03;;;;;;;28.10;25.30;;;;;;;16.88;nan;99418.19;2065618;28;20511;-77
2022/07/21 03:48:10;;;;;;;29.23;26.20;;;;;;;16.89;nan;99422.47;2074310;28;20474;-77
2022/07/21 03:49:13;;;;;;;28.97;25.90;;;;;;;16.93;nan;99418.00;2065383;28;20440;-77
2022/07/21 03:50:17;;;;;;;32.27;25.40;;;;;;;16.92;nan;99421.81;2065616;28;20458;-77
2022/07/21 03:51:17;;;;;;;27.17;24.30;;;;;;;16.94;nan;99414.22;2073690;28;20250;-77
2022/07/21 03:52:19;;;;;;;28.53;25.60;;;;;;;16.95;nan;99418.47;2065226;28;20444;-77
2022/07/21 03:53:20;;;;;;;27.37;24.53;;;;;;;16.98;nan;99427.81;2057301;28;20240;-77
2022/07/21 03:54:25;;;;;;;27.20;24.50;;;;;;;16.98;nan;99422.41;2065371;28;20451;-77
2022/07/21 03:55:28;;;;;;;30.10;25.40;;;;;;;17.00;nan;99428.25;2065314;28;20197;-77
2022/07/21 03:56:31;;;;;;;27.70;24.90;;;;;;;17.01;nan;99427.13;2057509;28;20437;-77
2022/07/21 03:57:32;;;;;;;28.23;25.37;;;;;;;17.01;nan;99426.34;2065776;28;20429;-77
2022/07/21 03:58:34;;;;;;;28.33;25.40;;;;;;;17.01;nan;99421.75;2064928;28;20484;-77
2022/07/21 03:59:37;;;;;;;30.37;26.10;;;;;;;17.04;nan;99426.50;2065434;28;20524;-77
2022/07/21 04:00:41;;;;;;;29.20;25.37;;;;;;;17.06;nan;99423.47;2065364;28;20444;-77
2022/07/21 04:01:44;;;;;;;29.27;26.10;;;;;;;17.07;nan;99428.50;2065820;28;20436;-77
2022/07/21 04:02:47;;;;;;;33.10;26.33;;;;;;;17.09;nan;99422.78;2074038;28;20419;-76
2022/07/21 04:03:47;;;;;;;28.23;25.43;;;;;;;17.12;nan;99428.34;2065541;28;20518;-77
2022/07/21 04:04:49;;;;;;;29.67;26.80;;;;;;;17.15;nan;99432.25;2065474;28;20488;-77
2022/07/21 04:05:52;;;;;;;31.13;27.67;;;;;;;17.19;nan;99425.88;2074183;28;20288;-77
2022/07/21 04:06:53;;;;;;;30.23;27.07;;;;;;;17.25;nan;99426.47;2073624;28;20521;-77
2022/07/21 04:07:55;;;;;;;38.00;26.50;;;;;;;17.25;nan;99423.75;2073990;28;20455;-77
2022/07/21 04:08:56;;;;;;;29.33;26.27;;;;;;;17.27;nan;99426.91;2074119;28;20518;-77
2022/07/21 04:09:59;;;;;;;31.57;26.20;;;;;;;17.34;nan;99423.69;2065216;28;20447;-77
2022/07/21 04:11:00;;;;;;;29.30;26.07;;;;;;;17.36;nan;99427.63;2065607;28;20603;-77
2022/07/21 04:12:03;;;;;;;28.90;26.03;;;;;;;17.38;nan;99419.22;2074084;28;20493;-77
2022/07/21 04:13:07;;;;;;;31.07;26.43;;;;;;;17.39;nan;99421.59;2065266;28;20605;-77
2022/07/21 04:14:10;;;;;;;29.77;26.63;;;;;;;17.40;nan;99417.75;2065673;28;20804;-77
2022/07/21 04:15:11;;;;;;;29.57;26.47;;;;;;;17.45;nan;99422.94;2064956;28;21001;-77
2022/07/21 04:16:16;;;;;;;27.60;24.80;;;;;;;17.46;nan;99421.03;2057223;28;20859;-77
2022/07/21 04:17:17;;;;;;;34.80;25.53;;;;;;;17.48;nan;99416.88;2065677;28;20444;-77
2022/07/21 04:18:18;;;;;;;32.27;25.90;;;;;;;17.51;nan;99413.50;2073989;28;20427;-77
2022/07/21 04:19:19;;;;;;;31.23;25.80;;;;;;;17.54;nan;99422.84;2074077;28;20250;-77
2022/07/21 04:20:23;;;;;;;31.57;25.53;;;;;;;17.56;nan;99415.22;2073974;28;20980;-77
2022/07/21 04:21:27;;;;;;;28.90;25.20;;;;;;;17.57;nan;99421.41;2064385;28;20607;-76
2022/07/21 04:22:30;;;;;;;30.57;24.80;;;;;;;17.61;nan;99422.31;2065765;28;20428;-77
2022/07/21 04:23:32;;;;;;;27.87;24.97;;;;;;;17.62;nan;99423.88;2065186;28;20534;-76
2022/07/21 04:24:34;;;;;;;29.20;25.70;;;;;;;17.66;nan;99419.41;2065463;28;20482;-77
2022/07/21 04:25:35;;;;;;;27.67;24.97;;;;;;;17.67;nan;99426.38;2065195;28;20538;-77
2022/07/21 04:26:37;;;;;;;31.37;25.63;;;;;;;17.70;nan;99420.34;2065414;28;20428;-77
2022/07/21 04:27:40;;;;;;;31.63;25.63;;;;;;;17.70;nan;99420.34;2073990;28;20434;-76
2022/07/21 04:28:44;;;;;;;25.87;23.23;;;;;;;17.73;nan;99420.47;2064807;28;20880;-77
2022/07/21 04:29:46;;;;;;;28.50;24.67;;;;;;;17.74;nan;99416.66;2065275;28;20906;-77
2022/07/21 04:30:48;;;;;;;34.83;26.03;;;;;;;17.76;nan;99413.59;2065419;28;20519;-77
2022/07/21 04:31:49;;;;;;;28.37;25.37;;;;;;;17.77;nan;99417.88;2065248;28;20598;-77
2022/07/21 04:32:51;;;;;;;31.97;25.90;;;;;;;17.79;nan;99423.72;2065284;28;20476;-77
2022/07/21 04:33:53;;;;;;;33.90;25.60;;;;;;;17.83;nan;99416.53;2065231;28;20284;-76
2022/07/21 04:34:55;;;;;;;34.60;25.43;;;;;;;17.85;nan;99422.41;2065401;28;20429;-77
2022/07/21 04:35:56;;;;;;;31.90;25.97;;;;;;;17.85;nan;99419.69;2064267;28;20448;-77
2022/07/21 04:36:58;;;;;;;28.17;25.17;;;;;;;17.89;nan;99414.41;2064842;28;20441;-76
2022/07/21 04:38:01;;;;;;;29.87;26.67;;;;;;;17.91;nan;99415.66;2065545;28;20285;-76
2022/07/21 04:39:02;;;;;;;27.87;25.17;;;;;;;17.94;nan;99422.28;2073870;28;20467;-76
2022/07/21 04:40:06;;;;;;;27.80;24.93;;;;;;;17.94;nan;99428.47;2074075;28;20434;-76
2022/07/21 04:41:09;;;;;;;30.97;26.20;;;;;;;17.96;nan;99418.13;2074041;28;20287;-76
2022/07/21 04:42:11;;;;;;;30.80;25.30;;;;;;;17.99;nan;99414.78;2074098;28;20436;-76
2022/07/21 04:43:13;;;;;;;28.13;25.23;;;;;;;18.02;nan;99416.00;2073857;28;20777;-76
2022/07/21 04:44:18;;;;;;;28.10;25.17;;;;;;;18.03;nan;99412.19;2074086;28;20431;-76
2022/07/21 04:45:19;;;;;;;28.83;25.43;;;;;;;18.05;nan;99416.09;2074072;28;20481;-77
2022/07/21 04:46:20;;;;;;;27.90;24.97;;;;;;;18.07;nan;99418.50;2065209;28;20456;-77
2022/07/21 04:47:22;;;;;;;27.73;24.77;;;;;;;18.11;nan;99415.91;2065078;28;20445;-77
2022/07/21 04:48:23;;;;;;;26.93;24.20;;;;;;;18.13;nan;99419.03;2065056;28;20197;-77
2022/07/21 04:49:25;;;;;;;32.00;24.53;;;;;;;18.17;nan;99419.97;2065164;28;20474;-78
2022/07/21 04:50:30;;;;;;;27.03;24.27;;;;;;;18.18;nan;99416.13;2065077;28;20455;-77
2022/07/21 04:51:32;;;;;;;27.37;23.93;;;;;;;18.19;nan;99417.69;2057183;28;20467;-77
2022/07/21 04:52:34;;;;;;;26.23;23.80;;;;;;;18.21;nan;99416.22;2065323;28;20416;-77
2022/07/21 04:53:35;;;;;;;25.57;23.17;;;;;;;18.24;nan;99415.56;2064998;28;20480;-77
2022/07/21 04:54:36;;;;;;;26.03;23.50;;;;;;;18.27;nan;99416.81;2065267;28;20456;-77
2022/07/21 04:55:38;;;;;;;26.83;23.97;;;;;;;18.29;nan;99419.94;2074101;28;20431;-77